Station: Warburton  

  Atmospheric Gas Attenuation - ITU Rec 676-11   ----------------- dB/100km -----------------
Date Time Temp RH % AH g/m3 Dew Point Wind Direction Speed kph Gust kph Barometer mB Rainfall Since 9am 24GHz 47GHz 76GHz 122GHz 134GHz 241GHz
05/05 18:30 19.9 32 5.5 2.7 17 26 1021.4 0.6 12.8 20.1 26.4 68.5 55.9 189.9
05/05 18:20 20 31 5.36 2.4 20 22 1021.3 0.6 12.5 19.9 25.9 67.2 54.3 184.3
05/05 18:10 20.2 31 5.42 2.5 17 20 1021.1 0.6 12.6 19.9 26.0 67.6 54.8 186.1
05/05 18:00 20.4 30 5.31 2.3 20 28 1021.1 0.6 12.4 19.7 25.6 66.4 53.5 181.5
05/05 17:50 20.6 29 5.19 2 22 28 1021 0.6 12.1 19.5 25.1 65.2 52.0 176.5
05/05 17:40 20.7 29 5.22 2 22 26 1021 0.6 12.2 19.5 25.2 65.4 52.3 177.5
05/05 17:30 21.1 29 5.34 2.4 19 28 1020.9 0.6 12.4 19.6 25.5 66.1 53.3 181.1
05/05 15:50 21.3 29 5.41 2.6 15 17 1020.9 0.6 12.6 19.7 25.6 66.6 53.9 183.3
05/05 17:20 21.3 29 5.41 2.6 15 17 1020.9 0.6 12.6 19.7 25.6 66.6 53.9 183.3
05/05 17:10 21.4 29 5.44 2.6 15 19 1020.8 0.6 12.6 19.7 25.7 66.7 54.2 184.1
05/05 15:40 21.4 29 5.44 2.6 15 19 1020.8 0.6 12.6 19.7 25.7 66.7 54.2 184.1
05/05 15:30 21.4 28 5.25 2.2 15 22 1020.8 0.6 12.2 19.4 25.1 65.1 52.2 177.1
05/05 17:00 21.4 28 5.25 2.2 15 22 1020.8 0.6 12.2 19.4 25.1 65.1 52.2 177.1
05/05 16:50 21.8 27 5.18 2 17 20 1020.8 0.6 12.1 19.2 24.7 64.2 51.2 173.6
05/05 15:20 21.8 27 5.18 2 17 20 1020.8 0.6 12.1 19.2 24.7 64.2 51.2 173.6
05/05 16:40 21.5 27 5.09 1.7 11 17 1020.8 0.6 11.9 19.2 24.5 63.7 50.4 170.9
05/05 15:10 21.5 27 5.09 1.7 11 17 1020.8 0.6 11.9 19.2 24.5 63.7 50.4 170.9
05/05 15:00 21.4 26 4.87 1.1 15 20 1020.8 0.6 11.4 18.9 23.9 61.9 48.2 163.0
05/05 16:30 21.4 26 4.87 1.1 15 20 1020.8 0.6 11.4 18.9 23.9 61.9 48.2 163.0
05/05 16:20 21.9 27 5.21 2.1 15 19 1020.9 0.6 12.1 19.3 24.8 64.4 51.4 174.5
05/05 14:50 21.9 27 5.21 2.1 15 19 1020.9 0.6 12.1 19.3 24.8 64.4 51.4 174.5
05/05 14:40 22.1 27 5.27 2.2 15 19 1020.9 0.6 12.2 19.3 24.9 64.7 51.9 176.3
05/05 16:10 22.1 27 5.27 2.2 15 19 1020.9 0.6 12.2 19.3 24.9 64.7 51.9 176.3
05/05 16:00 22 27 5.24 2.2 22 26 1020.9 0.6 12.2 19.3 24.9 64.6 51.7 175.4
05/05 14:30 22 27 5.24 2.2 22 26 1020.9 0.6 12.2 19.3 24.9 64.6 51.7 175.4
05/05 15:46 21.7 27 5.15 1.9 15 17 1021 0.6 12.0 19.2 24.7 64.0 50.9 172.8
05/05 14:16 21.7 27 5.15 1.9 15 17 1021 0.6 12.0 19.2 24.7 64.0 50.9 172.8
05/05 13:30 19.9 19 26 1022.3 0
05/05 11:54 19.9 13 15 1022.3 0
05/05 13:24 19.9 13 15 1022.3 0
05/05 13:20 20.8 20 24 1022.4 0
05/05 13:10 20.1 17 20 1022.5 0
05/05 13:00 20 20 35 1022.9 0
05/05 12:50 19.5 22 30 1023 0
05/05 12:40 19.3 19 24 1023.1 0
05/05 12:30 18.9 19 26 1023.4 0
05/05 12:20 18.9 19 24 1023.6 0
05/05 12:10 18.8 28 30 1023.8 0
05/05 12:00 18.6 22 30 1023.8 0
05/05 11:50 18.3 22 26 1024 0
05/05 11:40 18 20 24 1024.1 0
05/05 11:30 17.7 24 35 1024.2 0
05/05 11:20 17.4 26 30 1024.4 0
05/05 11:10 17.3 26 32 1024.5 0
05/05 11:00 17 26 35 1024.7 0
05/05 10:50 16.9 24 32 1024.9 0
05/05 10:40 16.2 28 35 1024.9 0
05/05 10:30 16.3 26 35 1024.9 0
05/05 10:20 15.9 28 32 1025 0
05/05 10:10 15.9 20 26 1025 0
05/05 10:00 15.6 28 41 1024.9 0
05/05 09:50 15.2 32 39 1024.9 0
05/05 09:40 14.9 22 28 1024.8 0
05/05 09:30 14.2 24 32 1024.7 0
05/05 09:20 13.8 24 30 1024.6 0
05/05 09:10 13.3 20 24 1024.5 0
05/05 09:00 12.6 20 30 1024.4 0
05/05 08:50 12.1 28 32 1024.2 0
05/05 08:40 11.8 22 24 1024.1 0
05/05 08:30 11.4 17 24 1023.9 0
05/05 08:20 11 17 24 1023.8 0
05/05 08:10 10.6 20 22 1023.6 0
05/05 08:00 10.3 15 20 1023.4 0
05/05 07:50 9.9 13 15 1023.5 0
05/05 07:40 9.7 11 13 1023.5 0
05/05 07:30 9.7 15 20 1023.3 0
05/05 07:20 9.7 13 17 1023.2 0
05/05 07:10 9.7 13 15 1023.2 0
05/05 07:00 9.8 15 20 1023.2 0
05/05 06:50 10 19 20 1023.1 0
05/05 06:40 10.1 15 19 1023.1 0
05/05 06:30 10.2 17 20 1023.1 0
05/05 06:20 10.3 15 17 1023.1 0
05/05 06:10 10.4 17 20 1023 0
05/05 06:00 10.6 19 26 1023 0
05/05 05:50 10.7 24 26 1022.8 0
05/05 05:40 10.7 20 28 1022.6 0
05/05 05:30 10.7 20 26 1022.7 0
05/05 05:20 10.7 20 22 1022.8 0
05/05 05:10 10.8 20 24 1022.7 0
05/05 05:00 10.8 17 24 1022.7 0
05/05 04:50 10.9 17 20 1022.7 0
05/05 04:40 11 17 20 1022.7 0
05/05 04:30 11.1 19 24 1022.6 0
05/05 04:20 11.1 17 20 1022.6 0
05/05 04:10 11.2 15 19 1022.7 0
05/05 04:00 11.3 17 22 1022.7 0
05/05 03:50 11.3 15 17 1022.8 0
05/05 03:40 11.6 17 20 1022.9 0
05/05 03:30 11.7 17 22 1022.8 0
05/05 03:20 11.8 17 20 1022.9 0
05/05 03:10 12 17 20 1023 0
05/05 03:00 12.1 17 20 1023 0
05/05 02:50 12.3 19 20 1023 0
05/05 02:40 12.3 17 20 1023 0
05/05 02:30 12.5 17 22 1023 0
05/05 02:20 12.6 19 20 1023 0
05/05 02:10 12.7 19 20 1023 0
05/05 02:00 12.8 20 28 1023.1 0
05/05 01:50 12.9 20 26 1023.1 0

Last Refresh: 05-May-2026 18:40:09

Bureau of Meteorology